Main page
METAR-TAF:

METAR-TAF

Airports :

Tôlanaro Airport

Tôlanaro, Madagascar

latitude: 25-02S, longitude: 046-57E, elevation: 8 m

Current weather observation

The report was made 46 minutes ago, at 08:00 UTC
Wind 10 kt from the West/Southwest
Temperature 27°C
Humidity 62%
Pressure 1017 hPa
Visibility 10 km or more
Few clouds at a height of 2000 ft

METAR: FMSD 130800Z 24010KT 9999 FEW020 27/19 Q1017

Time: 11:46 (08:46 UTC)


TAF: missing

Weather observations and forecasts of more than 4000 airports (METAR and TAF reports).

The available stations are represented by yellow and red dots on the map.

Hover mouse over dot to see the name of the station.

Then click to see weather observations and forecasts.

To change the map : click on the green buttons with a black cross to zoom in, on the green button with a dash to zoom out, or on the green arrows for adjacent maps.


METAR-TAF: